createdAt,value
2018-05-08T00:00:23.916Z,16.95
2018-05-08T00:01:23.888Z,16.92
2018-05-08T00:02:23.867Z,16.84
2018-05-08T00:03:23.840Z,16.87
2018-05-08T00:04:23.817Z,16.84
2018-05-08T00:05:23.792Z,16.80
2018-05-08T00:06:23.770Z,16.90
2018-05-08T00:07:23.746Z,16.88
2018-05-08T00:08:23.728Z,16.75
2018-05-08T00:09:23.699Z,16.78
2018-05-08T00:10:23.676Z,16.69
2018-05-08T00:11:23.655Z,16.75
2018-05-08T00:12:23.633Z,16.75
2018-05-08T00:13:23.646Z,16.66
2018-05-08T00:14:23.583Z,16.63
2018-05-08T00:15:23.561Z,16.65
2018-05-08T00:16:23.536Z,16.63
2018-05-08T00:17:23.511Z,16.70
2018-05-08T00:18:23.488Z,16.63
2018-05-08T00:19:23.467Z,16.59
2018-05-08T00:20:23.447Z,16.67
2018-05-08T00:21:23.423Z,16.57
2018-05-08T00:22:23.395Z,16.57
2018-05-08T00:23:23.373Z,16.63
2018-05-08T00:24:23.349Z,16.65
2018-05-08T00:25:23.325Z,16.60
2018-05-08T00:26:23.303Z,16.57
2018-05-08T00:27:23.277Z,16.54
2018-05-08T00:28:23.263Z,16.54
2018-05-08T00:29:23.229Z,16.55
2018-05-08T00:30:23.208Z,16.52
2018-05-08T00:31:23.184Z,16.48
2018-05-08T00:32:23.162Z,16.45
2018-05-08T00:33:23.136Z,16.42
2018-05-08T00:34:23.115Z,16.32
2018-05-08T00:35:23.090Z,16.18
2018-05-08T00:36:23.065Z,16.27
2018-05-08T00:37:23.040Z,16.34
2018-05-08T00:38:23.017Z,16.34
2018-05-08T00:39:22.998Z,16.33
2018-05-08T00:40:22.969Z,16.44
2018-05-08T00:41:22.949Z,16.34
2018-05-08T00:42:22.923Z,16.32
2018-05-08T00:43:22.901Z,16.22
2018-05-08T00:44:22.877Z,16.22
2018-05-08T00:45:22.860Z,16.13
2018-05-08T00:46:22.829Z,16.22
2018-05-08T00:47:22.804Z,16.14
2018-05-08T00:48:22.780Z,16.18
2018-05-08T00:49:22.757Z,16.13
2018-05-08T00:50:22.733Z,16.10
2018-05-08T00:51:22.711Z,16.16
2018-05-08T00:52:22.690Z,16.06
2018-05-08T00:53:22.667Z,16.07
2018-05-08T00:54:22.641Z,16.01
2018-05-08T00:55:22.624Z,16.10
2018-05-08T00:56:22.597Z,16.08
2018-05-08T00:57:22.571Z,16.07
2018-05-08T00:58:22.545Z,16.04
2018-05-08T00:59:22.519Z,16.03
2018-05-08T01:00:22.495Z,16.06
2018-05-08T01:01:22.470Z,15.95
2018-05-08T01:02:22.451Z,15.91
2018-05-08T01:03:22.426Z,15.92
2018-05-08T01:04:22.402Z,15.91
2018-05-08T01:05:22.377Z,15.88
2018-05-08T01:06:22.354Z,15.85
2018-05-08T01:07:22.330Z,15.91
2018-05-08T01:08:22.305Z,15.85
2018-05-08T01:09:22.280Z,15.86
2018-05-08T01:10:22.256Z,15.76
2018-05-08T01:11:23.001Z,15.78
2018-05-08T01:12:22.214Z,15.76
2018-05-08T01:13:22.186Z,15.81
2018-05-08T01:14:22.163Z,15.78
2018-05-08T01:15:22.138Z,15.77
2018-05-08T01:16:22.113Z,15.77
2018-05-08T01:17:22.091Z,15.74
2018-05-08T01:18:22.066Z,15.77
2018-05-08T01:19:22.044Z,15.77
2018-05-08T01:20:22.020Z,15.85
2018-05-08T01:21:21.995Z,15.76
2018-05-08T01:22:21.971Z,15.74
2018-05-08T01:23:21.946Z,15.77
2018-05-08T01:24:21.925Z,15.76
2018-05-08T01:25:21.897Z,15.80
2018-05-08T01:26:21.873Z,15.73
2018-05-08T01:27:21.849Z,15.74
2018-05-08T01:28:21.838Z,15.74
2018-05-08T01:29:21.806Z,15.78
2018-05-08T01:30:21.777Z,15.71
2018-05-08T01:31:21.761Z,15.74
2018-05-08T01:32:21.732Z,15.67
2018-05-08T01:33:21.707Z,15.73
2018-05-08T01:34:21.683Z,15.77
2018-05-08T01:35:21.657Z,15.66
2018-05-08T01:36:21.633Z,15.62
2018-05-08T01:37:21.613Z,15.62
2018-05-08T01:38:21.585Z,15.62
2018-05-08T01:39:21.562Z,15.52
2018-05-08T01:40:21.539Z,15.55
2018-05-08T01:41:21.514Z,15.53
2018-05-08T01:42:21.494Z,15.48
2018-05-08T01:43:21.491Z,15.41
2018-05-08T01:44:21.443Z,15.49
2018-05-08T01:45:21.418Z,15.46
2018-05-08T01:46:21.394Z,15.43
2018-05-08T01:47:21.368Z,15.51
2018-05-08T01:48:21.345Z,15.53
2018-05-08T01:49:21.320Z,15.59
2018-05-08T01:50:21.297Z,15.68
2018-05-08T01:51:21.275Z,15.70
2018-05-08T01:52:21.250Z,15.64
2018-05-08T01:53:21.228Z,15.56
2018-05-08T01:54:21.204Z,15.58
2018-05-08T01:55:21.178Z,15.58
2018-05-08T01:56:21.153Z,15.59
2018-05-08T01:57:21.127Z,15.53
2018-05-08T01:58:21.105Z,15.53
2018-05-08T01:59:21.078Z,15.52
2018-05-08T02:00:21.054Z,15.55
2018-05-08T02:01:21.036Z,15.55
2018-05-08T02:02:21.006Z,15.53
2018-05-08T02:03:20.984Z,15.51
2018-05-08T02:04:20.960Z,15.44
2018-05-08T02:05:20.936Z,15.35
2018-05-08T02:06:20.916Z,15.35
2018-05-08T02:07:20.885Z,15.34
2018-05-08T02:08:20.862Z,15.34
2018-05-08T02:09:20.839Z,15.38
2018-05-08T02:10:20.819Z,15.23
2018-05-08T02:11:20.799Z,15.37
2018-05-08T02:12:20.767Z,15.35
2018-05-08T02:13:20.743Z,15.33
2018-05-08T02:14:20.732Z,15.34
2018-05-08T02:15:20.696Z,15.30
2018-05-08T02:16:20.667Z,15.23
2018-05-08T02:17:20.642Z,15.11
2018-05-08T02:18:20.619Z,15.09
2018-05-08T02:19:20.596Z,15.05
2018-05-08T02:20:20.615Z,15.09
2018-05-08T02:21:20.548Z,15.12
2018-05-08T02:22:20.524Z,15.07
2018-05-08T02:23:20.498Z,15.09
2018-05-08T02:24:20.481Z,15.09
2018-05-08T02:25:20.448Z,15.01
2018-05-08T02:26:20.425Z,15.01
2018-05-08T02:27:20.410Z,15.00
2018-05-08T02:28:20.379Z,14.98
2018-05-08T02:29:20.360Z,15.07
2018-05-08T02:30:20.331Z,15.11
2018-05-08T02:31:20.306Z,14.94
2018-05-08T02:32:20.281Z,14.94
2018-05-08T02:33:20.256Z,15.01
2018-05-08T02:34:20.235Z,14.98
2018-05-08T02:35:20.213Z,15.13
2018-05-08T02:36:20.182Z,15.12
2018-05-08T02:37:20.156Z,15.00
2018-05-08T02:38:20.133Z,14.98
2018-05-08T02:39:20.111Z,14.95
2018-05-08T02:40:20.091Z,14.93
2018-05-08T02:41:20.069Z,14.95
2018-05-08T02:42:20.037Z,14.91
2018-05-08T02:43:20.011Z,14.94
2018-05-08T02:44:19.987Z,14.90
2018-05-08T02:45:19.961Z,14.97
2018-05-08T02:46:19.942Z,14.90
2018-05-08T02:47:19.914Z,15.01
2018-05-08T02:48:19.891Z,15.01
2018-05-08T02:49:19.885Z,14.95
2018-05-08T02:50:19.840Z,15.01
2018-05-08T02:51:19.818Z,15.11
2018-05-08T02:52:19.793Z,15.03
2018-05-08T02:53:19.768Z,15.11
2018-05-08T02:54:19.743Z,15.11
2018-05-08T02:55:19.725Z,15.07
2018-05-08T02:56:19.698Z,15.11
2018-05-08T02:57:19.668Z,15.13
2018-05-08T02:58:19.644Z,15.11
2018-05-08T02:59:19.623Z,15.07
2018-05-08T03:00:19.601Z,15.04
2018-05-08T03:01:19.573Z,15.12
2018-05-08T03:02:19.548Z,15.03
2018-05-08T03:03:19.524Z,15.05
2018-05-08T03:04:19.501Z,15.01
2018-05-08T03:05:19.474Z,15.00
2018-05-08T03:06:19.450Z,14.98
2018-05-08T03:07:19.424Z,15.03
2018-05-08T03:08:19.400Z,14.95
2018-05-08T03:09:19.375Z,15.07
2018-05-08T03:10:19.352Z,15.01
2018-05-08T03:11:19.333Z,14.97
2018-05-08T03:12:19.307Z,14.94
2018-05-08T03:13:19.278Z,15.00
2018-05-08T03:14:19.254Z,14.91
2018-05-08T03:15:19.227Z,14.94
2018-05-08T03:16:19.204Z,14.95
2018-05-08T03:17:19.181Z,14.90
2018-05-08T03:18:19.154Z,14.95
2018-05-08T03:19:19.134Z,14.95
2018-05-08T03:20:19.108Z,14.94
2018-05-08T03:21:19.082Z,14.95
2018-05-08T03:22:19.063Z,14.90
2018-05-08T03:23:19.031Z,14.86
2018-05-08T03:24:19.008Z,14.86
2018-05-08T03:25:18.983Z,14.90
2018-05-08T03:26:18.966Z,14.87
2018-05-08T03:27:18.934Z,14.83
2018-05-08T03:28:18.920Z,14.80
2018-05-08T03:29:18.885Z,14.83
2018-05-08T03:30:18.861Z,14.87
2018-05-08T03:31:18.835Z,14.90
2018-05-08T03:32:18.810Z,14.79
2018-05-08T03:33:18.789Z,14.79
2018-05-08T03:34:18.761Z,14.74
2018-05-08T03:35:18.737Z,14.66
2018-05-08T03:36:18.715Z,14.59
2018-05-08T03:37:18.693Z,14.66
2018-05-08T03:38:18.664Z,14.72
2018-05-08T03:39:18.640Z,14.74
2018-05-08T03:40:18.616Z,14.74
2018-05-08T03:41:18.591Z,14.72
2018-05-08T03:42:18.567Z,14.72
2018-05-08T03:43:18.544Z,14.72
2018-05-08T03:44:18.601Z,14.72
2018-05-08T03:45:18.495Z,14.82
2018-05-08T03:46:18.466Z,14.69
2018-05-08T03:47:18.444Z,14.72
2018-05-08T03:48:18.420Z,14.66
2018-05-08T03:49:18.397Z,14.54
2018-05-08T03:50:18.373Z,14.49
2018-05-08T03:51:18.347Z,14.45
2018-05-08T03:52:18.322Z,14.44
2018-05-08T03:53:18.297Z,14.53
2018-05-08T03:54:18.272Z,14.59
2018-05-08T03:55:18.246Z,14.61
2018-05-08T03:56:18.222Z,14.59
2018-05-08T03:57:18.214Z,14.59
2018-05-08T03:58:18.172Z,14.69
2018-05-08T03:59:18.149Z,14.72
2018-05-08T04:00:18.137Z,14.83
2018-05-08T04:01:18.101Z,14.98
2018-05-08T04:02:18.076Z,15.13
2018-05-08T04:03:18.049Z,15.20
2018-05-08T04:04:18.025Z,15.35
2018-05-08T04:05:18.001Z,15.52
2018-05-08T04:06:17.976Z,15.58
2018-05-08T04:07:17.952Z,15.70
2018-05-08T04:08:17.969Z,15.77
2018-05-08T04:09:17.903Z,15.88
2018-05-08T04:10:17.878Z,15.89
2018-05-08T04:11:17.857Z,15.92
2018-05-08T04:12:17.833Z,15.98
2018-05-08T04:13:17.811Z,16.04
2018-05-08T04:14:17.785Z,15.88
2018-05-08T04:15:17.760Z,16.04
2018-05-08T04:16:17.742Z,15.74
2018-05-08T04:17:17.711Z,15.93
2018-05-08T04:18:17.687Z,16.04
2018-05-08T04:19:17.671Z,16.11
2018-05-08T04:20:17.642Z,16.07
2018-05-08T04:21:17.622Z,15.96
2018-05-08T04:22:17.594Z,16.10
2018-05-08T04:23:17.577Z,16.14
2018-05-08T04:24:17.554Z,16.04
2018-05-08T04:25:17.529Z,16.03
2018-05-08T04:26:17.500Z,15.99
2018-05-08T04:27:17.475Z,16.08
2018-05-08T04:28:17.452Z,16.06
2018-05-08T04:29:17.428Z,16.10
2018-05-08T04:30:17.405Z,16.22
2018-05-08T04:31:17.388Z,15.96
2018-05-08T04:32:17.361Z,16.17
2018-05-08T04:33:17.338Z,16.22
2018-05-08T04:34:17.317Z,16.36
2018-05-08T04:35:17.290Z,16.60
2018-05-08T04:36:17.270Z,16.67
2018-05-08T04:37:17.244Z,16.80
2018-05-08T04:38:17.230Z,17.09
2018-05-08T04:39:17.199Z,17.15
2018-05-08T04:40:17.176Z,16.99
2018-05-08T04:41:17.153Z,17.10
2018-05-08T04:42:17.130Z,17.12
2018-05-08T04:43:17.110Z,17.25
2018-05-08T04:44:17.089Z,17.43
2018-05-08T04:45:17.082Z,17.63
2018-05-08T04:46:17.042Z,17.92
2018-05-08T04:47:17.025Z,17.95
2018-05-08T04:48:16.997Z,17.98
2018-05-08T04:49:16.973Z,17.91
2018-05-08T04:50:16.951Z,18.17
2018-05-08T04:51:16.931Z,18.16
2018-05-08T04:52:16.909Z,18.35
2018-05-08T04:53:16.887Z,18.35
2018-05-08T04:54:16.864Z,18.39
2018-05-08T04:55:16.843Z,18.69
2018-05-08T04:56:16.821Z,18.76
2018-05-08T04:57:16.803Z,18.96
2018-05-08T04:58:16.778Z,18.89
2018-05-08T04:59:16.753Z,18.97
2018-05-08T05:00:16.732Z,18.54
2018-05-08T05:01:16.710Z,18.38
2018-05-08T05:02:16.690Z,18.29
2018-05-08T05:03:16.673Z,18.46
2018-05-08T05:04:16.647Z,18.29
2018-05-08T05:05:16.630Z,18.25
2018-05-08T05:06:16.603Z,18.17
2018-05-08T05:07:16.585Z,18.57
2018-05-08T05:08:16.560Z,18.51
2018-05-08T05:09:16.537Z,18.65
2018-05-08T05:10:16.519Z,19.21
2018-05-08T05:11:16.501Z,19.60
2018-05-08T05:12:16.474Z,19.05
2018-05-08T05:13:16.464Z,18.76
2018-05-08T05:14:16.432Z,18.90
2018-05-08T05:15:16.420Z,19.20
2018-05-08T05:16:16.395Z,18.97
2018-05-08T05:17:16.372Z,19.25
2018-05-08T05:18:16.350Z,19.42
2018-05-08T05:19:16.331Z,19.62
2018-05-08T05:20:16.306Z,19.57
2018-05-08T05:21:16.286Z,19.70
2018-05-08T05:22:16.269Z,19.85
2018-05-08T05:23:16.252Z,19.89
2018-05-08T05:24:16.229Z,19.86
2018-05-08T05:25:16.205Z,19.61
2018-05-08T05:26:16.185Z,19.53
2018-05-08T05:27:16.170Z,19.60
2018-05-08T05:28:16.143Z,19.82
2018-05-08T05:29:16.122Z,20.16
2018-05-08T05:30:16.102Z,20.05
2018-05-08T05:31:16.088Z,20.54
2018-05-08T05:32:16.071Z,20.51
2018-05-08T05:33:16.044Z,20.34
2018-05-08T05:34:16.028Z,20.57
2018-05-08T05:35:16.002Z,20.69
2018-05-08T05:36:15.983Z,20.40
2018-05-08T05:37:15.973Z,19.97
2018-05-08T05:38:15.973Z,20.37
2018-05-08T05:39:15.925Z,20.60
2018-05-08T05:40:15.914Z,20.41
2018-05-08T05:41:15.928Z,20.73
2018-05-08T05:42:15.871Z,20.50
2018-05-08T05:43:15.849Z,20.37
2018-05-08T05:44:15.833Z,20.51
2018-05-08T05:45:15.816Z,20.66
2018-05-08T05:46:15.789Z,20.17
2018-05-08T05:47:15.772Z,20.13
2018-05-08T05:48:15.752Z,20.15
2018-05-08T05:49:15.729Z,19.71
2018-05-08T05:50:15.711Z,19.87
2018-05-08T05:51:15.693Z,20.19
2018-05-08T05:52:15.675Z,20.01
2018-05-08T05:53:15.709Z,20.17
2018-05-08T05:54:15.634Z,20.05
2018-05-08T05:55:15.624Z,20.69
2018-05-08T05:56:15.597Z,21.01
2018-05-08T05:57:15.582Z,21.12
2018-05-08T05:58:15.575Z,20.75
2018-05-08T05:59:15.767Z,20.53
2018-05-08T06:00:15.524Z,20.10
2018-05-08T06:01:15.505Z,20.23
2018-05-08T06:02:15.492Z,20.17
2018-05-08T06:03:15.471Z,20.33
2018-05-08T06:04:15.450Z,20.38
2018-05-08T06:05:15.429Z,20.83
2018-05-08T06:06:15.423Z,21.03
2018-05-08T06:07:15.394Z,20.85
2018-05-08T06:08:15.376Z,20.88
2018-05-08T06:09:15.358Z,20.83
2018-05-08T06:10:15.540Z,20.51
2018-05-08T06:11:15.323Z,20.51
2018-05-08T06:12:15.304Z,20.38
2018-05-08T06:13:15.284Z,20.54
2018-05-08T06:14:15.470Z,21.43
2018-05-08T06:15:15.252Z,21.55
2018-05-08T06:16:15.433Z,21.40
2018-05-08T06:17:15.235Z,20.87
2018-05-08T06:18:15.396Z,21.46
2018-05-08T06:19:15.183Z,21.22
2018-05-08T06:20:15.199Z,20.71
2018-05-08T06:21:15.193Z,20.83
2018-05-08T06:22:15.124Z,21.09
2018-05-08T06:23:15.108Z,21.01
2018-05-08T06:24:15.090Z,21.08
2018-05-08T06:25:15.072Z,21.52
2018-05-08T06:26:15.091Z,21.11
2018-05-08T06:27:15.044Z,21.46
2018-05-08T06:28:15.021Z,21.38
2018-05-08T06:29:15.002Z,21.66
2018-05-08T06:30:14.986Z,21.63
2018-05-08T06:31:14.969Z,21.53
2018-05-08T06:32:14.953Z,21.68
2018-05-08T06:33:14.938Z,22.02
2018-05-08T06:34:14.918Z,22.31
2018-05-08T06:35:14.901Z,22.66
2018-05-08T06:36:14.883Z,22.56
2018-05-08T06:37:14.866Z,22.51
2018-05-08T06:38:14.863Z,22.41
2018-05-08T06:39:14.843Z,23.14
2018-05-08T06:40:14.819Z,22.36
2018-05-08T06:41:14.805Z,22.48
2018-05-08T06:42:14.801Z,22.67
2018-05-08T06:43:14.768Z,22.76
2018-05-08T06:44:14.810Z,22.94
2018-05-08T06:45:14.738Z,23.18
2018-05-08T06:46:14.718Z,23.15
2018-05-08T06:47:14.709Z,23.12
2018-05-08T06:48:14.889Z,22.70
2018-05-08T06:49:14.671Z,22.89
2018-05-08T06:50:14.658Z,22.60
2018-05-08T06:51:14.848Z,22.52
2018-05-08T06:52:14.831Z,23.03
2018-05-08T06:53:15.618Z,23.00
2018-05-08T06:54:14.817Z,23.07
2018-05-08T06:55:14.786Z,23.34
2018-05-08T06:56:14.766Z,23.31
2018-05-08T06:57:14.751Z,23.19
2018-05-08T06:58:14.530Z,22.93
2018-05-08T06:59:14.719Z,22.94
2018-05-08T07:00:14.511Z,23.57
2018-05-08T07:01:14.687Z,23.60
2018-05-08T07:02:14.669Z,23.23
2018-05-08T07:03:14.455Z,23.04
2018-05-08T07:04:14.436Z,23.06
2018-05-08T07:05:14.424Z,22.85
2018-05-08T07:06:14.406Z,23.34
2018-05-08T07:07:14.391Z,23.53
2018-05-08T07:08:14.377Z,23.57
2018-05-08T07:09:14.439Z,23.18
2018-05-08T07:10:14.348Z,23.25
2018-05-08T07:11:14.533Z,23.45
2018-05-08T07:12:14.316Z,23.52
2018-05-08T07:13:14.305Z,23.47
2018-05-08T07:14:14.287Z,23.72
2018-05-08T07:15:14.274Z,23.84
2018-05-08T07:16:14.389Z,24.08
2018-05-08T07:17:14.241Z,23.93
2018-05-08T07:18:14.227Z,24.56
2018-05-08T07:19:14.213Z,24.11
2018-05-08T07:20:14.205Z,23.59
2018-05-08T07:21:14.223Z,23.63
2018-05-08T07:22:14.169Z,23.78
2018-05-08T07:23:14.155Z,23.44
2018-05-08T07:24:14.143Z,23.47
2018-05-08T07:25:14.126Z,23.47
2018-05-08T07:26:14.112Z,24.02
2018-05-08T07:27:14.104Z,24.05
2018-05-08T07:28:14.084Z,24.18
2018-05-08T07:29:14.076Z,23.87
2018-05-08T07:30:14.056Z,23.68
2018-05-08T07:31:14.041Z,23.47
2018-05-08T07:32:14.030Z,23.52
2018-05-08T07:33:14.013Z,23.84
2018-05-08T07:34:13.999Z,24.29
2018-05-08T07:35:13.989Z,23.78
2018-05-08T07:36:13.972Z,24.14
2018-05-08T07:37:13.957Z,24.42
2018-05-08T07:38:14.225Z,23.92
2018-05-08T07:39:13.930Z,24.42
2018-05-08T07:40:13.941Z,24.48
2018-05-08T07:41:13.902Z,25.19
2018-05-08T07:42:14.091Z,25.04
2018-05-08T07:43:14.083Z,24.89
2018-05-08T07:44:14.071Z,25.44
2018-05-08T07:45:13.850Z,25.81
2018-05-08T07:46:13.867Z,24.97
2018-05-08T07:47:13.821Z,25.35
2018-05-08T07:48:13.808Z,25.12
2018-05-08T07:49:13.797Z,25.08
2018-05-08T07:50:13.983Z,25.08
2018-05-08T07:51:13.768Z,24.99
2018-05-08T07:52:13.958Z,24.87
2018-05-08T07:53:13.944Z,24.79
2018-05-08T07:54:13.956Z,24.90
2018-05-08T07:55:13.719Z,25.24
2018-05-08T07:56:13.910Z,24.71
2018-05-08T07:57:13.701Z,24.84
2018-05-08T07:58:13.684Z,24.94
2018-05-08T07:59:13.664Z,24.92
2018-05-08T08:00:13.651Z,24.89
2018-05-08T08:01:13.640Z,24.63
2018-05-08T08:02:13.626Z,24.60
2018-05-08T08:03:13.620Z,24.84
2018-05-08T08:04:13.600Z,25.09
2018-05-08T08:05:13.592Z,25.12
2018-05-08T08:06:13.575Z,25.27
2018-05-08T08:07:13.566Z,24.97
2018-05-08T08:08:13.593Z,25.19
2018-05-08T08:09:13.536Z,25.30
2018-05-08T08:10:13.524Z,25.42
2018-05-08T08:11:13.515Z,25.23
2018-05-08T08:12:13.704Z,25.23
2018-05-08T08:13:13.488Z,25.44
2018-05-08T08:14:13.477Z,25.83
2018-05-08T08:15:13.463Z,26.49
2018-05-08T08:16:13.451Z,26.57
2018-05-08T08:17:13.437Z,25.85
2018-05-08T08:18:13.430Z,25.38
2018-05-08T08:19:13.414Z,25.39
2018-05-08T08:20:13.403Z,25.41
2018-05-08T08:21:13.397Z,25.29
2018-05-08T08:22:13.385Z,25.57
2018-05-08T08:23:13.366Z,25.64
2018-05-08T08:24:13.361Z,25.54
2018-05-08T08:25:13.342Z,25.64
2018-05-08T08:26:13.331Z,25.51
2018-05-08T08:27:13.523Z,25.61
2018-05-08T08:28:13.308Z,25.98
2018-05-08T08:29:13.339Z,25.82
2018-05-08T08:30:13.293Z,25.71
2018-05-08T08:31:13.273Z,25.39
2018-05-08T08:32:13.261Z,25.93
2018-05-08T08:33:13.248Z,25.49
2018-05-08T08:34:13.247Z,25.86
2018-05-08T08:35:13.226Z,26.24
2018-05-08T08:36:13.222Z,26.31
2018-05-08T08:37:13.205Z,26.50
2018-05-08T08:38:13.195Z,26.23
2018-05-08T08:39:13.180Z,26.19
2018-05-08T08:40:13.173Z,26.12
2018-05-08T08:41:13.197Z,26.00
2018-05-08T08:42:13.160Z,25.98
2018-05-08T08:43:13.160Z,25.85
2018-05-08T08:44:13.172Z,25.93
2018-05-08T08:45:13.135Z,25.60
2018-05-08T08:46:13.142Z,25.74
2018-05-08T08:47:13.092Z,26.09
2018-05-08T08:48:13.151Z,26.21
2018-05-08T08:49:13.067Z,26.57
2018-05-08T08:50:13.061Z,26.12
2018-05-08T08:51:13.055Z,25.69
2018-05-08T08:52:13.042Z,25.93
2018-05-08T08:53:13.040Z,26.09
2018-05-08T08:54:13.016Z,26.09
2018-05-08T08:55:13.001Z,26.32
2018-05-08T08:56:12.996Z,26.03
2018-05-08T08:57:12.979Z,26.20
2018-05-08T08:58:12.967Z,26.57
2018-05-08T08:59:12.957Z,27.05
2018-05-08T09:00:12.948Z,27.27
2018-05-08T09:01:12.935Z,27.81
2018-05-08T09:02:12.925Z,27.01
2018-05-08T09:03:12.954Z,27.05
2018-05-08T09:04:12.920Z,27.20
2018-05-08T09:05:12.891Z,26.94
2018-05-08T09:06:12.897Z,26.81
2018-05-08T09:07:12.911Z,26.93
2018-05-08T09:08:12.874Z,26.47
2018-05-08T09:09:12.848Z,26.23
2018-05-08T09:10:12.847Z,26.24
2018-05-08T09:11:12.997Z,26.69
2018-05-08T09:12:12.839Z,26.60
2018-05-08T09:13:12.812Z,25.98
2018-05-08T09:14:12.842Z,26.24
2018-05-08T09:15:12.795Z,26.23
2018-05-08T09:16:12.777Z,26.12
2018-05-08T09:17:12.768Z,26.11
2018-05-08T09:18:12.782Z,26.16
2018-05-08T09:19:12.744Z,26.01
2018-05-08T09:20:12.734Z,26.83
2018-05-08T09:21:12.724Z,26.88
2018-05-08T09:22:12.717Z,26.64
2018-05-08T09:23:12.763Z,26.65
2018-05-08T09:24:12.691Z,26.36
2018-05-08T09:25:12.679Z,26.91
2018-05-08T09:26:12.669Z,26.83
2018-05-08T09:27:12.659Z,26.51
2018-05-08T09:28:12.652Z,26.88
2018-05-08T09:29:12.637Z,26.64
2018-05-08T09:30:12.627Z,26.66
2018-05-08T09:31:12.617Z,26.96
2018-05-08T09:32:12.611Z,27.31
2018-05-08T09:33:12.599Z,27.52
2018-05-08T09:34:12.592Z,27.52
2018-05-08T09:35:12.582Z,26.66
2018-05-08T09:36:12.565Z,26.68
2018-05-08T09:37:12.571Z,27.12
2018-05-08T09:38:12.549Z,27.12
2018-05-08T09:39:12.534Z,27.12
2018-05-08T09:40:12.532Z,27.23
2018-05-08T09:41:12.518Z,27.83
2018-05-08T09:42:12.503Z,27.87
2018-05-08T09:43:12.495Z,27.59
2018-05-08T09:44:12.484Z,27.71
2018-05-08T09:45:12.474Z,27.50
2018-05-08T09:46:12.466Z,27.06
2018-05-08T09:47:12.453Z,26.65
2018-05-08T09:48:12.445Z,26.72
2018-05-08T09:49:12.512Z,26.65
2018-05-08T09:50:12.422Z,26.13
2018-05-08T09:51:12.419Z,26.36
2018-05-08T09:52:12.402Z,26.57
2018-05-08T09:53:12.395Z,26.29
2018-05-08T09:54:12.453Z,26.81
2018-05-08T09:55:12.395Z,26.66
2018-05-08T09:56:12.365Z,27.01
2018-05-08T09:57:12.351Z,27.20
2018-05-08T09:58:12.344Z,27.02
2018-05-08T09:59:12.332Z,27.20
2018-05-08T10:00:12.322Z,27.21
2018-05-08T10:01:12.312Z,26.81
2018-05-08T10:02:12.301Z,27.33
2018-05-08T10:03:12.343Z,27.84
2018-05-08T10:04:12.286Z,27.84
2018-05-08T10:05:12.276Z,27.88
2018-05-08T10:06:12.260Z,27.91
2018-05-08T10:07:12.253Z,28.09
2018-05-08T10:08:12.241Z,28.25
2018-05-08T10:09:12.229Z,27.72
2018-05-08T10:10:12.220Z,27.76
2018-05-08T10:11:12.215Z,27.90
2018-05-08T10:12:12.202Z,27.80
2018-05-08T10:13:12.190Z,28.03
2018-05-08T10:14:12.180Z,27.98
2018-05-08T10:15:12.171Z,28.01
2018-05-08T10:16:12.161Z,28.01
2018-05-08T10:17:12.152Z,27.71
2018-05-08T10:18:12.144Z,27.13
2018-05-08T10:19:12.132Z,27.43
2018-05-08T10:20:12.143Z,27.68
2018-05-08T10:21:12.113Z,27.84
2018-05-08T10:22:12.107Z,27.81
2018-05-08T10:23:12.100Z,27.63
2018-05-08T10:24:12.084Z,27.48
2018-05-08T10:25:12.073Z,27.31
2018-05-08T10:26:12.064Z,27.50
2018-05-08T10:27:12.054Z,27.34
2018-05-08T10:28:12.046Z,27.03
2018-05-08T10:29:12.035Z,26.97
2018-05-08T10:30:12.027Z,27.15
2018-05-08T10:31:12.020Z,27.12
2018-05-08T10:32:12.006Z,26.57
2018-05-08T10:33:11.996Z,26.83
2018-05-08T10:34:12.009Z,27.01
2018-05-08T10:35:11.978Z,27.31
2018-05-08T10:36:11.968Z,27.50
2018-05-08T10:37:11.958Z,28.02
2018-05-08T10:38:11.948Z,28.43
2018-05-08T10:39:11.938Z,27.77
2018-05-08T10:40:11.928Z,27.66
2018-05-08T10:41:11.920Z,27.99
2018-05-08T10:42:11.909Z,27.53
2018-05-08T10:43:11.898Z,27.55
2018-05-08T10:44:11.896Z,28.18
2018-05-08T10:45:11.881Z,28.40
2018-05-08T10:46:11.870Z,28.57
2018-05-08T10:47:11.860Z,28.11
2018-05-08T10:48:11.855Z,27.72
2018-05-08T10:49:11.845Z,27.58
2018-05-08T10:50:11.832Z,27.50
2018-05-08T10:51:11.823Z,27.83
2018-05-08T10:52:11.815Z,28.42
2018-05-08T10:53:11.807Z,28.23
2018-05-08T10:54:11.794Z,28.64
2018-05-08T10:55:11.785Z,28.45
2018-05-08T10:56:11.781Z,28.24
2018-05-08T10:57:11.766Z,27.69
2018-05-08T10:58:11.758Z,27.49
2018-05-08T10:59:11.748Z,27.59
2018-05-08T11:00:11.739Z,27.91
2018-05-08T11:01:11.740Z,28.23
2018-05-08T11:02:11.722Z,28.23
2018-05-08T11:03:11.712Z,28.23
2018-05-08T11:04:11.705Z,27.96
2018-05-08T11:05:11.693Z,27.87
2018-05-08T11:06:11.685Z,27.80
2018-05-08T11:07:11.681Z,28.25
2018-05-08T11:08:11.678Z,28.11
2018-05-08T11:09:11.657Z,27.68
2018-05-08T11:10:11.648Z,27.74
2018-05-08T11:11:11.648Z,27.74
2018-05-08T11:12:11.630Z,27.95
2018-05-08T11:13:11.622Z,28.33
2018-05-08T11:14:11.610Z,28.48
2018-05-08T11:15:11.602Z,28.73
2018-05-08T11:16:11.592Z,28.09
2018-05-08T11:17:11.585Z,27.96
2018-05-08T11:18:11.574Z,27.84
2018-05-08T11:19:11.569Z,27.52
2018-05-08T11:20:11.557Z,27.76
2018-05-08T11:21:11.547Z,27.71
2018-05-08T11:22:11.538Z,27.43
2018-05-08T11:23:11.597Z,27.27
2018-05-08T11:24:11.541Z,27.42
2018-05-08T11:25:11.511Z,27.30
2018-05-08T11:26:11.502Z,27.05
2018-05-08T11:27:11.495Z,27.40
2018-05-08T11:28:11.486Z,27.58
2018-05-08T11:29:11.474Z,27.23
2018-05-08T11:30:11.465Z,27.31
2018-05-08T11:31:11.458Z,27.40
2018-05-08T11:32:11.450Z,27.58
2018-05-08T11:33:11.475Z,27.31
2018-05-08T11:34:11.429Z,27.77
2018-05-08T11:35:11.420Z,27.61
2018-05-08T11:36:11.414Z,27.99
2018-05-08T11:37:11.412Z,28.38
2018-05-08T11:38:11.393Z,28.17
2018-05-08T11:39:11.462Z,27.83
2018-05-08T11:40:11.383Z,28.03
2018-05-08T11:41:11.364Z,27.74
2018-05-08T11:42:11.359Z,27.61
2018-05-08T11:43:11.349Z,27.99
2018-05-08T11:44:11.347Z,27.63
2018-05-08T11:45:11.329Z,27.61
2018-05-08T11:46:11.324Z,27.40
2018-05-08T11:47:11.319Z,27.69
2018-05-08T11:48:11.306Z,27.62
2018-05-08T11:49:11.293Z,27.72
2018-05-08T11:50:11.289Z,27.62
2018-05-08T11:51:11.277Z,27.69
2018-05-08T11:52:11.267Z,27.77
2018-05-08T11:53:11.257Z,27.33
2018-05-08T11:54:11.249Z,27.38
2018-05-08T11:55:11.247Z,27.71
2018-05-08T11:56:11.234Z,27.48
2018-05-08T11:57:11.222Z,27.98
2018-05-08T11:58:11.270Z,27.55
2018-05-08T11:59:11.204Z,27.98
2018-05-08T12:00:11.206Z,27.98
2018-05-08T12:01:11.187Z,28.20
2018-05-08T12:02:11.176Z,28.21
2018-05-08T12:03:11.168Z,28.32
2018-05-08T12:04:11.166Z,28.20
2018-05-08T12:05:11.150Z,27.49
2018-05-08T12:06:11.141Z,28.03
2018-05-08T12:07:11.136Z,28.06
2018-05-08T12:08:11.124Z,27.84
2018-05-08T12:09:11.151Z,27.72
2018-05-08T12:10:11.116Z,27.95
2018-05-08T12:11:11.097Z,27.86
2018-05-08T12:12:11.096Z,27.50
2018-05-08T12:13:11.080Z,26.97
2018-05-08T12:14:11.071Z,27.40
2018-05-08T12:15:11.062Z,27.74
2018-05-08T12:16:11.056Z,27.95
2018-05-08T12:17:11.043Z,28.03
2018-05-08T12:18:11.036Z,28.01
2018-05-08T12:19:11.029Z,27.98
2018-05-08T12:20:11.068Z,27.86
2018-05-08T12:21:11.008Z,27.98
2018-05-08T12:22:11.001Z,27.90
2018-05-08T12:23:10.993Z,28.32
2018-05-08T12:24:10.982Z,28.21
2018-05-08T12:25:10.973Z,28.54
2018-05-08T12:26:10.964Z,28.79
2018-05-08T12:27:10.955Z,29.07
2018-05-08T12:28:10.947Z,28.77
2018-05-08T12:29:10.940Z,28.64
2018-05-08T12:30:10.935Z,28.28
2018-05-08T12:31:10.941Z,27.71
2018-05-08T12:32:10.927Z,28.54
2018-05-08T12:33:10.910Z,28.30
2018-05-08T12:34:10.894Z,28.28
2018-05-08T12:35:10.888Z,28.54
2018-05-08T12:36:10.994Z,28.65
2018-05-08T12:37:10.868Z,28.62
2018-05-08T12:38:10.863Z,28.32
2018-05-08T12:39:10.854Z,28.45
2018-05-08T12:40:10.845Z,27.66
2018-05-08T12:41:10.834Z,27.68
2018-05-08T12:42:10.894Z,27.78
2018-05-08T12:43:10.818Z,28.14
2018-05-08T12:44:10.810Z,28.23
2018-05-08T12:45:10.800Z,28.25
2018-05-08T12:46:10.807Z,28.42
2018-05-08T12:47:10.782Z,27.99
2018-05-08T12:48:10.773Z,28.24
2018-05-08T12:49:10.785Z,28.45
2018-05-08T12:50:10.762Z,28.32
2018-05-08T12:51:10.746Z,28.27
2018-05-08T12:52:10.738Z,28.43